sensor_id;sensor_type;location;lat;lon;timestamp;pressure;altitude;pressure_sealevel;temperature;humidity
19005;BME280;9635;52.078;8.648;2023-05-10T00:04:34;99530.25;;;14.80;85.89
19005;BME280;9635;52.078;8.648;2023-05-10T00:09:37;99524.47;;;14.92;86.49
19005;BME280;9635;52.078;8.648;2023-05-10T00:14:40;99520.78;;;14.85;84.89
19005;BME280;9635;52.078;8.648;2023-05-10T00:19:44;99518.81;;;14.70;85.95
19005;BME280;9635;52.078;8.648;2023-05-10T00:24:47;99511.69;;;14.77;86.68
19005;BME280;9635;52.078;8.648;2023-05-10T00:29:50;99519.47;;;14.64;85.99
19005;BME280;9635;52.078;8.648;2023-05-10T00:34:54;99510.88;;;14.60;86.74
19005;BME280;9635;52.078;8.648;2023-05-10T00:39:57;99501.91;;;14.68;87.58
19005;BME280;9635;52.078;8.648;2023-05-10T00:45:01;99501.69;;;14.78;87.43
19005;BME280;9635;52.078;8.648;2023-05-10T00:50:06;99503.25;;;14.72;87.60
19005;BME280;9635;52.078;8.648;2023-05-10T00:55:11;99491.25;;;14.67;87.57
19005;BME280;9635;52.078;8.648;2023-05-10T01:00:15;99496.53;;;14.44;86.35
19005;BME280;9635;52.078;8.648;2023-05-10T01:05:21;99501.09;;;14.27;86.91
19005;BME280;9635;52.078;8.648;2023-05-10T01:10:24;99495.34;;;14.22;87.15
19005;BME280;9635;52.078;8.648;2023-05-10T01:15:27;99486.41;;;14.29;88.44
19005;BME280;9635;52.078;8.648;2023-05-10T01:20:37;99491.97;;;14.44;88.28
19005;BME280;9635;52.078;8.648;2023-05-10T01:26:19;99480.66;;;14.32;87.58
19005;BME280;9635;52.078;8.648;2023-05-10T01:31:40;99487.41;;;14.20;87.48
19005;BME280;9635;52.078;8.648;2023-05-10T01:36:51;99486.06;;;14.16;87.84
19005;BME280;9635;52.078;8.648;2023-05-10T01:41:58;99489.44;;;13.69;88.22
19005;BME280;9635;52.078;8.648;2023-05-10T01:47:05;99491.97;;;13.95;88.61
19005;BME280;9635;52.078;8.648;2023-05-10T01:52:14;99492.13;;;13.77;87.54
19005;BME280;9635;52.078;8.648;2023-05-10T01:57:20;99488.22;;;13.55;89.18
19005;BME280;9635;52.078;8.648;2023-05-10T02:02:25;99477.63;;;13.78;89.44
19005;BME280;9635;52.078;8.648;2023-05-10T02:07:31;99482.34;;;13.92;89.02
19005;BME280;9635;52.078;8.648;2023-05-10T02:12:37;99480.19;;;13.96;89.97
19005;BME280;9635;52.078;8.648;2023-05-10T02:17:42;99486.91;;;13.84;89.47
19005;BME280;9635;52.078;8.648;2023-05-10T02:22:48;99486.50;;;13.54;90.06
19005;BME280;9635;52.078;8.648;2023-05-10T02:27:53;99495.94;;;13.42;89.96
19005;BME280;9635;52.078;8.648;2023-05-10T02:32:57;99506.56;;;13.09;91.14
19005;BME280;9635;52.078;8.648;2023-05-10T02:38:01;99508.16;;;13.28;90.28
19005;BME280;9635;52.078;8.648;2023-05-10T02:43:06;99507.44;;;13.18;89.61
19005;BME280;9635;52.078;8.648;2023-05-10T02:48:11;99507.81;;;13.23;89.75
19005;BME280;9635;52.078;8.648;2023-05-10T02:53:20;99502.91;;;13.18;88.64
19005;BME280;9635;52.078;8.648;2023-05-10T02:58:23;99502.97;;;12.92;90.12
19005;BME280;9635;52.078;8.648;2023-05-10T03:03:26;99505.38;;;13.03;89.56
19005;BME280;9635;52.078;8.648;2023-05-10T03:08:31;99505.38;;;13.03;89.08
19005;BME280;9635;52.078;8.648;2023-05-10T03:13:40;99511.13;;;13.09;89.17
19005;BME280;9635;52.078;8.648;2023-05-10T03:18:51;99512.81;;;13.10;89.12
19005;BME280;9635;52.078;8.648;2023-05-10T03:24:02;99514.81;;;13.08;89.23
19005;BME280;9635;52.078;8.648;2023-05-10T03:29:10;99516.38;;;13.18;89.86
19005;BME280;9635;52.078;8.648;2023-05-10T03:34:14;99507.13;;;13.21;89.33
19005;BME280;9635;52.078;8.648;2023-05-10T03:39:18;99517.22;;;13.19;89.58
19005;BME280;9635;52.078;8.648;2023-05-10T03:44:27;99523.78;;;13.16;89.01
19005;BME280;9635;52.078;8.648;2023-05-10T03:49:30;99526.28;;;13.10;89.73
19005;BME280;9635;52.078;8.648;2023-05-10T03:54:35;99526.28;;;12.49;91.35
19005;BME280;9635;52.078;8.648;2023-05-10T03:59:39;99527.59;;;12.71;91.74
19005;BME280;9635;52.078;8.648;2023-05-10T04:04:41;99540.56;;;12.68;90.62
19005;BME280;9635;52.078;8.648;2023-05-10T04:09:47;99537.31;;;12.64;91.14
19005;BME280;9635;52.078;8.648;2023-05-10T04:14:50;99538.22;;;12.73;90.98
19005;BME280;9635;52.078;8.648;2023-05-10T04:19:53;99540.50;;;12.59;91.25
19005;BME280;9635;52.078;8.648;2023-05-10T04:24:57;99541.38;;;12.68;91.61
19005;BME280;9635;52.078;8.648;2023-05-10T04:30:00;99548.91;;;12.56;90.94
19005;BME280;9635;52.078;8.648;2023-05-10T04:35:04;99552.22;;;12.14;92.35
19005;BME280;9635;52.078;8.648;2023-05-10T04:40:09;99559.72;;;11.57;95.56
19005;BME280;9635;52.078;8.648;2023-05-10T04:45:12;99567.78;;;11.30;94.44
19005;BME280;9635;52.078;8.648;2023-05-10T04:50:16;99577.59;;;11.48;95.04
19005;BME280;9635;52.078;8.648;2023-05-10T04:55:20;99584.72;;;11.67;94.14
19005;BME280;9635;52.078;8.648;2023-05-10T05:00:24;99588.81;;;11.71;93.76
19005;BME280;9635;52.078;8.648;2023-05-10T05:05:27;99598.44;;;11.46;94.72
19005;BME280;9635;52.078;8.648;2023-05-10T05:10:31;99602.59;;;11.59;94.45
19005;BME280;9635;52.078;8.648;2023-05-10T05:15:34;99608.50;;;11.44;94.27
19005;BME280;9635;52.078;8.648;2023-05-10T05:20:37;99616.94;;;11.77;93.63
19005;BME280;9635;52.078;8.648;2023-05-10T05:25:41;99624.41;;;12.01;92.52
19005;BME280;9635;52.078;8.648;2023-05-10T05:30:44;99627.19;;;11.91;92.98
19005;BME280;9635;52.078;8.648;2023-05-10T05:35:47;99635.13;;;12.11;91.66
19005;BME280;9635;52.078;8.648;2023-05-10T05:40:53;99646.13;;;12.00;92.27
19005;BME280;9635;52.078;8.648;2023-05-10T05:45:56;99653.66;;;12.14;91.43
19005;BME280;9635;52.078;8.648;2023-05-10T05:51:00;99657.72;;;12.00;92.23
19005;BME280;9635;52.078;8.648;2023-05-10T05:56:05;99660.47;;;12.18;91.00
19005;BME280;9635;52.078;8.648;2023-05-10T06:01:07;99669.47;;;12.27;91.92
19005;BME280;9635;52.078;8.648;2023-05-10T06:06:10;99672.16;;;12.27;91.39
19005;BME280;9635;52.078;8.648;2023-05-10T06:11:15;99681.13;;;12.00;91.74
19005;BME280;9635;52.078;8.648;2023-05-10T06:16:18;99693.97;;;11.78;93.16
19005;BME280;9635;52.078;8.648;2023-05-10T06:21:21;99705.03;;;11.75;93.96
19005;BME280;9635;52.078;8.648;2023-05-10T06:26:25;99710.19;;;11.96;92.52
19005;BME280;9635;52.078;8.648;2023-05-10T06:31:28;99712.28;;;12.02;91.41
19005;BME280;9635;52.078;8.648;2023-05-10T06:36:30;99713.25;;;12.01;92.16
19005;BME280;9635;52.078;8.648;2023-05-10T06:41:35;99719.34;;;12.03;92.27
19005;BME280;9635;52.078;8.648;2023-05-10T06:46:37;99731.44;;;11.89;92.59
19005;BME280;9635;52.078;8.648;2023-05-10T06:51:40;99736.53;;;11.55;94.43
19005;BME280;9635;52.078;8.648;2023-05-10T06:56:45;99739.81;;;12.14;92.65
19005;BME280;9635;52.078;8.648;2023-05-10T07:01:47;99740.66;;;12.14;92.70
19005;BME280;9635;52.078;8.648;2023-05-10T07:06:50;99746.91;;;12.15;90.39
19005;BME280;9635;52.078;8.648;2023-05-10T07:11:55;99756.03;;;12.59;90.20
19005;BME280;9635;52.078;8.648;2023-05-10T07:16:58;99749.84;;;12.31;90.56
19005;BME280;9635;52.078;8.648;2023-05-10T07:22:01;99760.88;;;12.28;89.44
19005;BME280;9635;52.078;8.648;2023-05-10T07:27:05;99756.88;;;12.60;88.59
19005;BME280;9635;52.078;8.648;2023-05-10T07:32:08;99758.72;;;12.77;88.72
19005;BME280;9635;52.078;8.648;2023-05-10T07:37:11;99771.63;;;13.27;87.68
19005;BME280;9635;52.078;8.648;2023-05-10T07:42:15;99769.75;;;13.46;84.78
19005;BME280;9635;52.078;8.648;2023-05-10T07:47:18;99771.72;;;13.18;82.88
19005;BME280;9635;52.078;8.648;2023-05-10T07:52:21;99779.88;;;13.26;84.81
19005;BME280;9635;52.078;8.648;2023-05-10T07:57:25;99774.34;;;13.27;83.73
19005;BME280;9635;52.078;8.648;2023-05-10T08:02:28;99780.69;;;13.00;83.60
19005;BME280;9635;52.078;8.648;2023-05-10T08:07:31;99784.75;;;13.04;84.55
19005;BME280;9635;52.078;8.648;2023-05-10T08:12:36;99789.19;;;13.49;84.78
19005;BME280;9635;52.078;8.648;2023-05-10T08:17:39;99790.88;;;13.77;83.13
19005;BME280;9635;52.078;8.648;2023-05-10T08:22:42;99793.00;;;13.65;83.40
19005;BME280;9635;52.078;8.648;2023-05-10T08:27:46;99797.13;;;13.33;81.85
19005;BME280;9635;52.078;8.648;2023-05-10T08:32:49;99801.72;;;13.59;81.49
19005;BME280;9635;52.078;8.648;2023-05-10T08:37:51;99807.56;;;14.06;82.89
19005;BME280;9635;52.078;8.648;2023-05-10T08:43:00;99809.63;;;14.38;81.90
19005;BME280;9635;52.078;8.648;2023-05-10T08:48:08;99816.75;;;13.87;80.18
19005;BME280;9635;52.078;8.648;2023-05-10T08:53:12;99817.81;;;14.29;79.01
19005;BME280;9635;52.078;8.648;2023-05-10T08:58:16;99811.31;;;15.15;74.62
19005;BME280;9635;52.078;8.648;2023-05-10T09:03:20;99815.19;;;15.86;74.48
19005;BME280;9635;52.078;8.648;2023-05-10T09:08:25;99821.47;;;15.78;72.69
19005;BME280;9635;52.078;8.648;2023-05-10T09:13:29;99832.94;;;15.07;74.81
19005;BME280;9635;52.078;8.648;2023-05-10T09:18:32;99837.25;;;14.75;76.54
19005;BME280;9635;52.078;8.648;2023-05-10T09:23:35;99838.63;;;14.79;79.65
19005;BME280;9635;52.078;8.648;2023-05-10T09:28:51;99845.03;;;14.35;79.13
19005;BME280;9635;52.078;8.648;2023-05-10T09:33:55;99856.28;;;13.70;84.23
19005;BME280;9635;52.078;8.648;2023-05-10T09:38:58;99862.84;;;12.51;87.82
19005;BME280;9635;52.078;8.648;2023-05-10T09:44:02;99864.56;;;13.15;89.60
19005;BME280;9635;52.078;8.648;2023-05-10T09:49:05;99863.47;;;13.62;87.77
19005;BME280;9635;52.078;8.648;2023-05-10T09:54:09;99869.75;;;13.88;87.38
19005;BME280;9635;52.078;8.648;2023-05-10T09:59:14;99864.91;;;14.26;86.89
19005;BME280;9635;52.078;8.648;2023-05-10T10:04:17;99863.50;;;14.99;87.22
19005;BME280;9635;52.078;8.648;2023-05-10T10:09:19;99850.75;;;15.66;83.44
19005;BME280;9635;52.078;8.648;2023-05-10T10:14:24;99867.81;;;16.00;76.47
19005;BME280;9635;52.078;8.648;2023-05-10T10:19:28;99856.50;;;15.88;75.57
19005;BME280;9635;52.078;8.648;2023-05-10T10:24:30;99850.03;;;16.53;73.55
19005;BME280;9635;52.078;8.648;2023-05-10T10:29:39;99853.88;;;17.29;71.47
19005;BME280;9635;52.078;8.648;2023-05-10T10:34:43;99842.31;;;16.42;71.77
19005;BME280;9635;52.078;8.648;2023-05-10T10:39:48;99847.25;;;16.69;66.42
19005;BME280;9635;52.078;8.648;2023-05-10T10:45:11;99847.38;;;17.15;68.77
19005;BME280;9635;52.078;8.648;2023-05-10T10:50:15;99850.69;;;17.63;66.15
19005;BME280;9635;52.078;8.648;2023-05-10T10:55:19;99852.88;;;17.68;61.40
19005;BME280;9635;52.078;8.648;2023-05-10T11:00:30;99841.63;;;17.56;63.40
19005;BME280;9635;52.078;8.648;2023-05-10T11:05:36;99846.84;;;17.96;66.03
19005;BME280;9635;52.078;8.648;2023-05-10T11:10:48;99844.03;;;18.93;59.89
19005;BME280;9635;52.078;8.648;2023-05-10T11:15:54;99838.91;;;19.05;56.84
19005;BME280;9635;52.078;8.648;2023-05-10T11:20:59;99848.47;;;18.20;58.61
19005;BME280;9635;52.078;8.648;2023-05-10T11:26:07;99842.03;;;19.01;56.22
19005;BME280;9635;52.078;8.648;2023-05-10T11:31:13;99848.38;;;18.28;58.43
19005;BME280;9635;52.078;8.648;2023-05-10T11:36:18;99852.47;;;19.41;54.58
19005;BME280;9635;52.078;8.648;2023-05-10T11:41:22;99847.50;;;18.87;55.93
19005;BME280;9635;52.078;8.648;2023-05-10T11:46:27;99842.75;;;20.03;54.96
19005;BME280;9635;52.078;8.648;2023-05-10T11:51:33;99834.72;;;21.32;48.15
19005;BME280;9635;52.078;8.648;2023-05-10T11:56:37;99843.72;;;21.13;48.84
19005;BME280;9635;52.078;8.648;2023-05-10T12:01:41;99857.28;;;19.17;54.68
19005;BME280;9635;52.078;8.648;2023-05-10T12:06:44;99857.09;;;18.23;54.43
19005;BME280;9635;52.078;8.648;2023-05-10T12:11:48;99859.81;;;18.23;54.96
19005;BME280;9635;52.078;8.648;2023-05-10T12:16:52;99864.09;;;18.62;54.74
19005;BME280;9635;52.078;8.648;2023-05-10T12:21:55;99872.75;;;18.51;54.40
19005;BME280;9635;52.078;8.648;2023-05-10T12:26:57;99882.50;;;18.30;56.51
19005;BME280;9635;52.078;8.648;2023-05-10T12:32:02;99884.72;;;17.36;58.15
19005;BME280;9635;52.078;8.648;2023-05-10T12:37:05;99889.00;;;17.31;59.74
19005;BME280;9635;52.078;8.648;2023-05-10T12:42:08;99885.59;;;17.52;57.76
19005;BME280;9635;52.078;8.648;2023-05-10T12:47:13;99895.25;;;18.15;55.88
19005;BME280;9635;52.078;8.648;2023-05-10T12:52:16;99894.31;;;19.76;53.73
19005;BME280;9635;52.078;8.648;2023-05-10T12:57:19;99905.00;;;19.35;55.52
19005;BME280;9635;52.078;8.648;2023-05-10T13:02:24;99913.22;;;19.20;57.75
19005;BME280;9635;52.078;8.648;2023-05-10T13:07:27;99897.13;;;19.61;56.77
19005;BME280;9635;52.078;8.648;2023-05-10T13:12:30;99898.25;;;19.95;55.63
19005;BME280;9635;52.078;8.648;2023-05-10T13:17:34;99897.59;;;20.49;54.22
19005;BME280;9635;52.078;8.648;2023-05-10T13:22:37;99899.16;;;21.13;50.75
19005;BME280;9635;52.078;8.648;2023-05-10T13:27:41;99898.97;;;21.21;49.94
19005;BME280;9635;52.078;8.648;2023-05-10T13:32:45;99906.56;;;21.26;49.47
19005;BME280;9635;52.078;8.648;2023-05-10T13:37:48;99901.00;;;20.58;52.13
19005;BME280;9635;52.078;8.648;2023-05-10T13:42:51;99906.41;;;18.94;55.28
19005;BME280;9635;52.078;8.648;2023-05-10T13:47:55;99915.13;;;17.92;58.39
19005;BME280;9635;52.078;8.648;2023-05-10T13:52:58;99930.59;;;17.23;63.06
19005;BME280;9635;52.078;8.648;2023-05-10T13:58:01;99949.91;;;15.00;67.27
19005;BME280;9635;52.078;8.648;2023-05-10T14:03:05;99943.28;;;15.45;66.10
19005;BME280;9635;52.078;8.648;2023-05-10T14:08:10;99953.84;;;15.14;69.43
19005;BME280;9635;52.078;8.648;2023-05-10T14:13:14;99953.59;;;14.99;72.30
19005;BME280;9635;52.078;8.648;2023-05-10T14:18:19;99966.03;;;14.76;76.08
19005;BME280;9635;52.078;8.648;2023-05-10T14:23:22;99978.66;;;14.23;77.53
19005;BME280;9635;52.078;8.648;2023-05-10T14:28:26;99971.06;;;14.45;79.87
19005;BME280;9635;52.078;8.648;2023-05-10T14:33:30;99964.00;;;14.44;80.06
19005;BME280;9635;52.078;8.648;2023-05-10T14:38:33;99960.38;;;14.61;78.97
19005;BME280;9635;52.078;8.648;2023-05-10T14:43:36;99958.13;;;14.48;78.49
19005;BME280;9635;52.078;8.648;2023-05-10T14:48:40;99963.72;;;14.55;79.38
19005;BME280;9635;52.078;8.648;2023-05-10T14:53:43;99953.03;;;14.79;79.05
19005;BME280;9635;52.078;8.648;2023-05-10T14:58:46;99962.72;;;14.90;78.43
19005;BME280;9635;52.078;8.648;2023-05-10T15:03:50;99958.91;;;15.09;78.81
19005;BME280;9635;52.078;8.648;2023-05-10T15:08:53;99963.91;;;15.55;78.66
19005;BME280;9635;52.078;8.648;2023-05-10T15:13:56;99970.25;;;15.88;77.94
19005;BME280;9635;52.078;8.648;2023-05-10T15:19:00;99967.50;;;15.96;76.15
19005;BME280;9635;52.078;8.648;2023-05-10T15:24:04;99966.31;;;16.07;73.56
19005;BME280;9635;52.078;8.648;2023-05-10T15:29:07;99967.00;;;16.09;74.63
19005;BME280;9635;52.078;8.648;2023-05-10T15:34:11;99963.78;;;16.13;72.95
19005;BME280;9635;52.078;8.648;2023-05-10T15:39:14;99965.13;;;16.09;72.47
19005;BME280;9635;52.078;8.648;2023-05-10T15:44:16;99978.88;;;16.32;72.51
19005;BME280;9635;52.078;8.648;2023-05-10T15:49:21;99986.31;;;16.39;72.65
19005;BME280;9635;52.078;8.648;2023-05-10T15:54:24;100003.34;;;16.72;71.91
19005;BME280;9635;52.078;8.648;2023-05-10T15:59:27;100012.53;;;15.89;71.04
19005;BME280;9635;52.078;8.648;2023-05-10T16:04:31;100017.28;;;15.87;71.29
19005;BME280;9635;52.078;8.648;2023-05-10T16:09:34;100013.88;;;15.77;70.13
19005;BME280;9635;52.078;8.648;2023-05-10T16:14:37;100025.38;;;15.70;70.28
19005;BME280;9635;52.078;8.648;2023-05-10T16:19:41;100029.72;;;15.39;70.73
19005;BME280;9635;52.078;8.648;2023-05-10T16:24:44;100031.56;;;15.46;70.41
19005;BME280;9635;52.078;8.648;2023-05-10T16:29:47;100036.66;;;15.41;70.04
19005;BME280;9635;52.078;8.648;2023-05-10T16:34:51;100040.44;;;15.22;71.53
19005;BME280;9635;52.078;8.648;2023-05-10T16:39:54;100046.91;;;14.95;73.69
19005;BME280;9635;52.078;8.648;2023-05-10T16:44:57;100049.00;;;14.83;74.78
19005;BME280;9635;52.078;8.648;2023-05-10T16:50:09;100065.38;;;14.74;72.94
19005;BME280;9635;52.078;8.648;2023-05-10T16:55:12;100073.84;;;14.79;73.51
19005;BME280;9635;52.078;8.648;2023-05-10T17:00:16;100075.53;;;14.36;74.82
19005;BME280;9635;52.078;8.648;2023-05-10T17:05:22;100073.38;;;13.86;76.09
19005;BME280;9635;52.078;8.648;2023-05-10T17:10:25;100075.63;;;13.35;80.23
19005;BME280;9635;52.078;8.648;2023-05-10T17:15:28;100075.31;;;13.20;83.05
19005;BME280;9635;52.078;8.648;2023-05-10T17:20:32;100069.50;;;13.15;84.42
19005;BME280;9635;52.078;8.648;2023-05-10T17:25:35;100069.19;;;13.18;85.64
19005;BME280;9635;52.078;8.648;2023-05-10T17:30:38;100077.09;;;13.30;86.49
19005;BME280;9635;52.078;8.648;2023-05-10T17:35:44;100075.63;;;13.35;87.09
19005;BME280;9635;52.078;8.648;2023-05-10T17:40:47;100086.69;;;13.14;86.91
19005;BME280;9635;52.078;8.648;2023-05-10T17:45:50;100088.69;;;13.12;87.64
19005;BME280;9635;52.078;8.648;2023-05-10T17:50:55;100092.94;;;13.15;87.51
19005;BME280;9635;52.078;8.648;2023-05-10T17:55:57;100092.81;;;13.07;88.26
19005;BME280;9635;52.078;8.648;2023-05-10T18:01:02;100099.16;;;13.15;88.11
19005;BME280;9635;52.078;8.648;2023-05-10T18:06:06;100108.84;;;13.08;88.02
19005;BME280;9635;52.078;8.648;2023-05-10T18:11:09;100116.19;;;13.16;87.85
19005;BME280;9635;52.078;8.648;2023-05-10T18:16:11;100114.53;;;13.05;87.48
19005;BME280;9635;52.078;8.648;2023-05-10T18:21:16;100123.47;;;13.05;86.83
19005;BME280;9635;52.078;8.648;2023-05-10T18:26:19;100119.63;;;13.08;86.92
19005;BME280;9635;52.078;8.648;2023-05-10T18:31:22;100121.44;;;13.17;87.59
19005;BME280;9635;52.078;8.648;2023-05-10T18:36:26;100140.47;;;13.16;86.15
19005;BME280;9635;52.078;8.648;2023-05-10T18:41:30;100136.38;;;13.02;86.81
19005;BME280;9635;52.078;8.648;2023-05-10T18:46:32;100147.03;;;13.03;87.33
19005;BME280;9635;52.078;8.648;2023-05-10T18:51:37;100154.13;;;13.04;86.67
19005;BME280;9635;52.078;8.648;2023-05-10T18:56:40;100154.94;;;13.15;87.08
19005;BME280;9635;52.078;8.648;2023-05-10T19:01:45;100166.28;;;13.18;86.90
19005;BME280;9635;52.078;8.648;2023-05-10T19:06:53;100172.41;;;13.11;87.08
19005;BME280;9635;52.078;8.648;2023-05-10T19:11:56;100174.59;;;12.88;86.64
19005;BME280;9635;52.078;8.648;2023-05-10T19:16:59;100178.75;;;13.29;87.91
19005;BME280;9635;52.078;8.648;2023-05-10T19:22:03;100180.72;;;13.27;87.09
19005;BME280;9635;52.078;8.648;2023-05-10T19:27:06;100194.94;;;13.29;87.40
19005;BME280;9635;52.078;8.648;2023-05-10T19:32:09;100189.25;;;13.32;87.39
19005;BME280;9635;52.078;8.648;2023-05-10T19:37:13;100193.66;;;13.23;87.54
19005;BME280;9635;52.078;8.648;2023-05-10T19:42:16;100180.00;;;13.35;88.43
19005;BME280;9635;52.078;8.648;2023-05-10T19:47:19;100186.56;;;13.42;88.31
19005;BME280;9635;52.078;8.648;2023-05-10T19:52:23;100185.97;;;13.48;88.72
19005;BME280;9635;52.078;8.648;2023-05-10T19:57:26;100188.22;;;13.53;89.03
19005;BME280;9635;52.078;8.648;2023-05-10T20:02:29;100185.06;;;13.57;88.82
19005;BME280;9635;52.078;8.648;2023-05-10T20:07:33;100191.47;;;13.56;88.99
19005;BME280;9635;52.078;8.648;2023-05-10T20:12:36;100191.59;;;13.55;88.85
19005;BME280;9635;52.078;8.648;2023-05-10T20:17:39;100185.81;;;13.49;88.72
19005;BME280;9635;52.078;8.648;2023-05-10T20:22:43;100188.78;;;13.46;89.00
19005;BME280;9635;52.078;8.648;2023-05-10T20:27:46;100179.00;;;13.45;89.08
19005;BME280;9635;52.078;8.648;2023-05-10T20:32:51;100186.56;;;13.42;89.10
19005;BME280;9635;52.078;8.648;2023-05-10T20:37:55;100176.19;;;13.47;88.68
19005;BME280;9635;52.078;8.648;2023-05-10T20:42:58;100180.69;;;13.46;89.17
19005;BME280;9635;52.078;8.648;2023-05-10T20:48:01;100173.63;;;13.45;89.06
19005;BME280;9635;52.078;8.648;2023-05-10T20:53:05;100181.88;;;13.44;89.31
19005;BME280;9635;52.078;8.648;2023-05-10T20:58:08;100172.22;;;13.41;88.71
19005;BME280;9635;52.078;8.648;2023-05-10T21:03:12;100177.47;;;13.33;89.44
19005;BME280;9635;52.078;8.648;2023-05-10T21:08:17;100182.00;;;13.33;89.39
19005;BME280;9635;52.078;8.648;2023-05-10T21:13:19;100195.78;;;13.30;88.56
19005;BME280;9635;52.078;8.648;2023-05-10T21:18:22;100197.84;;;12.98;88.30
19005;BME280;9635;52.078;8.648;2023-05-10T21:23:27;100195.31;;;12.87;88.45
19005;BME280;9635;52.078;8.648;2023-05-10T21:28:29;100194.75;;;12.83;88.89
19005;BME280;9635;52.078;8.648;2023-05-10T21:33:32;100202.84;;;12.83;88.71
19005;BME280;9635;52.078;8.648;2023-05-10T21:38:37;100192.19;;;12.82;88.73
19005;BME280;9635;52.078;8.648;2023-05-10T21:43:39;100190.47;;;12.91;89.07
19005;BME280;9635;52.078;8.648;2023-05-10T21:48:42;100186.81;;;12.92;89.90
19005;BME280;9635;52.078;8.648;2023-05-10T21:53:47;100192.75;;;12.95;89.87
19005;BME280;9635;52.078;8.648;2023-05-10T21:58:49;100195.16;;;12.89;89.41
19005;BME280;9635;52.078;8.648;2023-05-10T22:03:52;100195.47;;;12.56;89.23
19005;BME280;9635;52.078;8.648;2023-05-10T22:08:56;100198.72;;;12.50;89.67
19005;BME280;9635;52.078;8.648;2023-05-10T22:13:59;100195.06;;;12.51;89.54
19005;BME280;9635;52.078;8.648;2023-05-10T22:19:02;100202.97;;;12.53;89.78
19005;BME280;9635;52.078;8.648;2023-05-10T22:24:06;100207.38;;;12.54;89.61
19005;BME280;9635;52.078;8.648;2023-05-10T22:29:09;100207.53;;;12.62;89.66
19005;BME280;9635;52.078;8.648;2023-05-10T22:34:12;100214.06;;;12.59;89.15
19005;BME280;9635;52.078;8.648;2023-05-10T22:39:16;100221.28;;;12.49;89.41
19005;BME280;9635;52.078;8.648;2023-05-10T22:44:19;100227.66;;;12.48;89.82
19005;BME280;9635;52.078;8.648;2023-05-10T22:49:22;100223.09;;;12.29;89.80
19005;BME280;9635;52.078;8.648;2023-05-10T22:54:26;100221.28;;;12.49;89.91
19005;BME280;9635;52.078;8.648;2023-05-10T22:59:29;100231.06;;;12.41;90.55
19005;BME280;9635;52.078;8.648;2023-05-10T23:04:32;100232.34;;;12.66;90.01
19005;BME280;9635;52.078;8.648;2023-05-10T23:09:36;100232.75;;;12.61;90.27
19005;BME280;9635;52.078;8.648;2023-05-10T23:14:39;100237.00;;;12.83;89.88
19005;BME280;9635;52.078;8.648;2023-05-10T23:19:42;100238.03;;;12.92;89.90
19005;BME280;9635;52.078;8.648;2023-05-10T23:24:46;100235.88;;;12.95;90.15
19005;BME280;9635;52.078;8.648;2023-05-10T23:29:49;100240.81;;;13.00;89.93
19005;BME280;9635;52.078;8.648;2023-05-10T23:34:56;100237.75;;;12.95;89.49
19005;BME280;9635;52.078;8.648;2023-05-10T23:40:00;100242.69;;;12.90;89.30
19005;BME280;9635;52.078;8.648;2023-05-10T23:45:04;100238.28;;;12.98;89.84
19005;BME280;9635;52.078;8.648;2023-05-10T23:50:08;100236.88;;;13.04;89.89
19005;BME280;9635;52.078;8.648;2023-05-10T23:55:12;100242.25;;;13.04;89.96
